createdAt,value
2023-02-22T00:01:35.557Z,5.70
2023-02-22T00:04:05.654Z,5.70
2023-02-22T00:06:34.792Z,5.70
2023-02-22T00:09:03.639Z,5.70
2023-02-22T00:11:35.552Z,5.70
2023-02-22T00:14:04.440Z,5.70
2023-02-22T00:16:32.941Z,5.70
2023-02-22T00:19:01.411Z,5.60
2023-02-22T00:21:31.204Z,5.60
2023-02-22T00:23:59.487Z,5.60
2023-02-22T00:26:28.055Z,5.60
2023-02-22T00:28:57.654Z,5.60
2023-02-22T00:31:26.099Z,5.60
2023-02-22T00:33:55.143Z,5.60
2023-02-22T00:36:23.579Z,5.60
2023-02-22T00:38:52.112Z,5.60
2023-02-22T00:41:20.569Z,5.60
2023-02-22T00:43:49.575Z,5.60
2023-02-22T00:46:19.279Z,5.60
2023-02-22T00:48:47.869Z,5.60
2023-02-22T00:51:16.647Z,5.60
2023-02-22T00:53:45.811Z,5.60
2023-02-22T00:56:14.368Z,5.60
2023-02-22T00:58:42.946Z,5.60
2023-02-22T01:01:11.488Z,5.60
2023-02-22T01:03:41.595Z,5.60
2023-02-22T01:06:10.499Z,5.70
2023-02-22T01:08:38.916Z,5.70
2023-02-22T01:11:07.447Z,5.60
2023-02-22T01:13:35.812Z,5.70
2023-02-22T01:16:04.511Z,5.70
2023-02-22T01:18:32.940Z,5.70
2023-02-22T01:21:02.645Z,5.70
2023-02-22T01:23:31.165Z,5.70
2023-02-22T01:25:59.851Z,5.70
2023-02-22T01:28:29.236Z,5.70
2023-02-22T01:30:58.222Z,5.70
2023-02-22T01:33:27.171Z,5.70
2023-02-22T01:35:55.666Z,5.70
2023-02-22T01:38:25.575Z,5.70
2023-02-22T01:40:53.894Z,5.70
2023-02-22T01:43:24.226Z,5.70
2023-02-22T01:45:58.143Z,5.70
2023-02-22T01:48:37.045Z,5.70
2023-02-22T01:51:10.966Z,5.70
2023-02-22T01:53:47.322Z,5.70
2023-02-22T01:56:16.494Z,5.70
2023-02-22T01:58:47.565Z,5.80
2023-02-22T02:01:17.862Z,5.80
2023-02-22T02:03:49.125Z,5.70
2023-02-22T02:06:19.797Z,5.80
2023-02-22T02:08:58.783Z,5.70
2023-02-22T02:11:28.012Z,5.70
2023-02-22T02:13:58.896Z,5.70
2023-02-22T02:16:32.223Z,5.70
2023-02-22T02:19:00.683Z,5.70
2023-02-22T02:21:56.147Z,5.70
2023-02-22T02:24:53.471Z,5.70
2023-02-22T02:27:23.433Z,5.70
2023-02-22T02:30:38.165Z,5.70
2023-02-22T02:33:13.842Z,5.70
2023-02-22T02:35:51.859Z,5.70
2023-02-22T02:38:31.404Z,5.70
2023-02-22T02:41:08.454Z,5.60
2023-02-22T02:43:44.166Z,5.70
2023-02-22T02:46:20.247Z,5.70
2023-02-22T02:48:56.905Z,5.70
2023-02-22T02:51:28.773Z,5.60
2023-02-22T02:53:58.481Z,5.60
2023-02-22T02:56:27.167Z,5.70
2023-02-22T02:58:56.230Z,5.60
2023-02-22T03:01:45.444Z,5.60
2023-02-22T03:04:37.461Z,5.70
2023-02-22T03:07:24.991Z,5.70
2023-02-22T03:10:04.036Z,5.70
2023-02-22T03:12:42.084Z,5.70
2023-02-22T03:15:21.971Z,5.70
2023-02-22T03:17:57.680Z,5.60
2023-02-22T03:20:32.669Z,5.60
2023-02-22T03:23:05.920Z,5.70
2023-02-22T03:25:39.670Z,5.70
2023-02-22T03:28:11.624Z,5.70
2023-02-22T03:30:44.213Z,5.70
2023-02-22T03:33:17.112Z,5.70
2023-02-22T03:35:50.868Z,5.70
2023-02-22T03:38:22.052Z,5.70
2023-02-22T03:40:54.505Z,5.70
2023-02-22T03:43:27.006Z,5.60
2023-02-22T03:45:56.180Z,5.60
2023-02-22T03:48:31.814Z,5.60
2023-02-22T03:51:04.496Z,5.70
2023-02-22T03:53:37.116Z,5.70
2023-02-22T03:56:08.656Z,5.70
2023-02-22T03:58:39.227Z,5.70
2023-02-22T04:01:07.800Z,5.70
2023-02-22T04:03:36.254Z,5.70
2023-02-22T04:06:06.223Z,5.70
2023-02-22T04:08:35.221Z,5.70
2023-02-22T04:11:03.666Z,5.70
2023-02-22T04:13:32.442Z,5.70
2023-02-22T04:16:01.095Z,5.70
2023-02-22T04:18:29.609Z,5.70
2023-02-22T04:20:58.061Z,5.70
2023-02-22T04:23:28.140Z,5.70
2023-02-22T04:25:56.652Z,5.70
2023-02-22T04:28:24.873Z,5.70
2023-02-22T04:30:53.277Z,5.60
2023-02-22T04:33:21.667Z,5.60
2023-02-22T04:35:51.699Z,5.60
2023-02-22T04:38:20.257Z,5.70
2023-02-22T04:40:50.228Z,5.60
2023-02-22T04:43:18.716Z,5.60
2023-02-22T04:45:47.167Z,5.60
2023-02-22T04:48:15.557Z,5.60
2023-02-22T04:50:44.050Z,5.60
2023-02-22T04:53:12.834Z,5.60
2023-02-22T04:55:41.307Z,5.60
2023-02-22T04:58:11.137Z,5.60
2023-02-22T05:00:39.655Z,5.60
2023-02-22T05:03:08.944Z,5.60
2023-02-22T05:05:37.403Z,5.60
2023-02-22T05:08:05.863Z,5.60
2023-02-22T05:10:34.296Z,5.70
2023-02-22T05:13:04.167Z,5.70
2023-02-22T05:15:33.933Z,5.80
2023-02-22T05:18:02.425Z,5.70
2023-02-22T05:20:31.978Z,5.70
2023-02-22T05:23:01.967Z,5.80
2023-02-22T05:25:30.657Z,5.80
2023-02-22T05:28:00.453Z,5.80
2023-02-22T05:30:31.204Z,5.80
2023-02-22T05:33:01.715Z,5.80
2023-02-22T05:35:30.859Z,5.80
2023-02-22T05:38:01.933Z,5.80
2023-02-22T05:40:30.947Z,5.80
2023-02-22T05:43:00.006Z,5.80
2023-02-22T05:45:29.661Z,5.80
2023-02-22T05:47:58.164Z,5.90
2023-02-22T05:50:28.024Z,6.00
2023-02-22T05:52:56.733Z,6.00
2023-02-22T05:55:25.772Z,5.90
2023-02-22T05:57:54.540Z,5.90
2023-02-22T06:00:25.618Z,5.90
2023-02-22T06:02:57.631Z,5.90
2023-02-22T06:05:27.637Z,5.80
2023-02-22T06:07:56.488Z,5.90
2023-02-22T06:10:24.979Z,5.90
2023-02-22T06:12:54.647Z,5.90
2023-02-22T06:15:24.576Z,5.90
2023-02-22T06:17:53.537Z,6.00
2023-02-22T06:20:25.010Z,6.00
2023-02-22T06:22:56.228Z,6.00
2023-02-22T06:25:26.455Z,6.00
2023-02-22T06:27:54.946Z,6.00
2023-02-22T06:30:25.131Z,6.00
2023-02-22T06:32:53.606Z,6.10
2023-02-22T06:35:22.848Z,6.10
2023-02-22T06:37:51.457Z,6.10
2023-02-22T06:40:21.351Z,6.20
2023-02-22T06:42:50.497Z,6.20
2023-02-22T06:45:19.481Z,6.20
2023-02-22T06:47:49.633Z,6.30
2023-02-22T06:50:23.553Z,6.40
2023-02-22T06:52:52.540Z,6.40
2023-02-22T06:55:24.762Z,6.40
2023-02-22T06:57:53.708Z,6.40
2023-02-22T07:00:24.820Z,6.40
2023-02-22T07:02:53.546Z,6.40
2023-02-22T07:05:23.180Z,6.40
2023-02-22T07:07:52.855Z,6.40
2023-02-22T07:10:25.761Z,6.60
2023-02-22T07:12:54.291Z,6.70
2023-02-22T07:15:23.836Z,6.70
2023-02-22T07:17:52.497Z,6.80
2023-02-22T07:20:22.046Z,6.80
2023-02-22T07:22:51.230Z,6.80
2023-02-22T07:25:19.952Z,6.80
2023-02-22T07:27:50.009Z,6.80
2023-02-22T07:30:20.292Z,6.70
2023-02-22T07:32:49.254Z,6.70
2023-02-22T07:35:18.854Z,6.80
2023-02-22T07:37:48.239Z,6.80
2023-02-22T07:40:18.129Z,6.80
2023-02-22T07:42:55.579Z,6.80
2023-02-22T07:45:25.024Z,6.80
2023-02-22T07:47:53.457Z,6.80
2023-02-22T07:50:23.681Z,6.80
2023-02-22T07:52:54.367Z,6.80
2023-02-22T07:55:24.511Z,6.80
2023-02-22T07:57:57.038Z,6.80
2023-02-22T08:00:27.564Z,6.80
2023-02-22T08:02:56.456Z,6.80
2023-02-22T08:05:27.068Z,6.80
2023-02-22T08:07:55.891Z,6.80
2023-02-22T08:10:26.434Z,6.80
2023-02-22T08:12:58.170Z,6.80
2023-02-22T08:15:29.466Z,6.80
2023-02-22T08:17:58.367Z,6.80
2023-02-22T08:20:27.113Z,6.80
2023-02-22T08:22:56.166Z,6.80
2023-02-22T08:25:27.280Z,6.90
2023-02-22T08:28:01.358Z,6.90
2023-02-22T08:30:31.269Z,7.00
2023-02-22T08:33:02.094Z,7.00
2023-02-22T08:35:31.757Z,7.00
2023-02-22T08:38:01.750Z,7.00
2023-02-22T08:40:31.932Z,7.00
2023-02-22T08:43:02.550Z,7.10
2023-02-22T08:45:31.595Z,7.10
2023-02-22T08:48:00.625Z,7.10
2023-02-22T08:50:30.454Z,7.10
2023-02-22T08:53:00.754Z,7.20
2023-02-22T08:55:32.313Z,7.20
2023-02-22T08:58:03.861Z,7.20
2023-02-22T09:00:34.087Z,7.40
2023-02-22T09:03:04.078Z,7.50
2023-02-22T09:05:33.060Z,7.60
2023-02-22T09:08:02.088Z,7.60
2023-02-22T09:10:32.517Z,7.60
2023-02-22T09:13:03.932Z,7.60
2023-02-22T09:15:35.912Z,7.60
2023-02-22T09:18:05.411Z,7.60
2023-02-22T09:20:35.940Z,7.60
2023-02-22T09:23:05.200Z,7.60
2023-02-22T09:25:34.706Z,7.70
2023-02-22T09:28:04.362Z,7.70
2023-02-22T09:30:34.802Z,7.70
2023-02-22T09:33:05.944Z,7.70
2023-02-22T09:35:36.245Z,7.80
2023-02-22T09:38:07.296Z,7.80
2023-02-22T09:40:45.055Z,7.80
2023-02-22T09:43:25.593Z,7.90
2023-02-22T09:46:05.243Z,7.90
2023-02-22T09:48:37.542Z,8.00
2023-02-22T09:51:19.534Z,8.00
2023-02-22T09:53:50.855Z,8.10
2023-02-22T09:56:21.115Z,8.20
2023-02-22T09:58:53.799Z,8.20
2023-02-22T10:01:29.004Z,8.20
2023-02-22T10:04:04.730Z,8.30
2023-02-22T10:06:34.967Z,8.30
2023-02-22T10:09:08.143Z,8.40
2023-02-22T10:11:53.733Z,8.40
2023-02-22T10:14:43.864Z,8.50
2023-02-22T10:17:19.010Z,8.60
2023-02-22T10:19:56.171Z,8.70
2023-02-22T10:22:40.388Z,8.70
2023-02-22T10:25:13.970Z,8.70
2023-02-22T10:27:45.916Z,8.80
2023-02-22T10:30:25.324Z,8.90
2023-02-22T10:32:59.862Z,8.90
2023-02-22T10:35:30.926Z,9.00
2023-02-22T10:38:05.364Z,9.10
2023-02-22T10:40:33.918Z,9.10
2023-02-22T10:43:06.790Z,9.30
2023-02-22T10:45:37.398Z,9.30
2023-02-22T10:48:11.634Z,9.30
2023-02-22T10:50:42.130Z,9.50
2023-02-22T10:53:11.929Z,9.40
2023-02-22T10:56:12.894Z,9.60
2023-02-22T10:58:47.544Z,9.50
2023-02-22T11:01:27.659Z,9.60
2023-02-22T11:04:01.429Z,9.60
2023-02-22T11:06:30.129Z,9.50
2023-02-22T11:09:13.888Z,9.90
2023-02-22T11:11:44.441Z,9.80
2023-02-22T11:14:14.208Z,9.70
2023-02-22T11:16:47.245Z,9.60
2023-02-22T11:19:23.218Z,9.70
2023-02-22T11:21:54.324Z,9.60
2023-02-22T11:24:30.311Z,9.50
2023-02-22T11:27:03.928Z,9.60
2023-02-22T11:29:33.852Z,9.70
2023-02-22T11:32:13.558Z,9.70
2023-02-22T11:34:43.986Z,9.80
2023-02-22T11:37:30.722Z,9.70
2023-02-22T11:40:17.833Z,9.80
2023-02-22T11:42:46.526Z,9.90
2023-02-22T11:45:17.253Z,9.90
2023-02-22T11:47:53.729Z,9.90
2023-02-22T11:50:32.928Z,9.80
2023-02-22T11:53:27.826Z,9.90
2023-02-22T11:56:10.825Z,9.90
2023-02-22T11:58:46.904Z,9.90
2023-02-22T12:01:24.468Z,10.00
2023-02-22T12:04:23.819Z,9.90
2023-02-22T12:07:02.494Z,9.90
2023-02-22T12:09:38.469Z,10.00
2023-02-22T12:12:18.519Z,9.80
2023-02-22T12:14:56.838Z,9.80
2023-02-22T12:17:43.613Z,9.70
2023-02-22T12:20:24.803Z,9.50
2023-02-22T12:23:06.581Z,9.40
2023-02-22T12:25:38.954Z,9.30
2023-02-22T12:28:24.673Z,9.30
2023-02-22T12:31:02.886Z,9.40
2023-02-22T12:33:39.376Z,9.40
2023-02-22T12:36:15.099Z,9.30
2023-02-22T12:38:48.078Z,9.20
2023-02-22T12:41:24.507Z,9.10
2023-02-22T12:43:56.910Z,9.10
2023-02-22T12:46:31.954Z,9.00
2023-02-22T12:49:08.624Z,9.00
2023-02-22T12:51:44.417Z,9.10
2023-02-22T12:54:19.919Z,9.20
2023-02-22T12:56:54.369Z,9.20
2023-02-22T12:59:30.550Z,9.20
2023-02-22T13:02:04.573Z,9.10
2023-02-22T13:04:34.790Z,9.00
2023-02-22T13:07:19.425Z,9.10
2023-02-22T13:10:04.048Z,9.20
2023-02-22T13:12:41.050Z,9.30
2023-02-22T13:15:19.803Z,9.20
2023-02-22T13:18:01.303Z,9.30
2023-02-22T13:20:35.553Z,9.30
2023-02-22T13:23:12.342Z,9.40
2023-02-22T13:25:45.374Z,9.60
2023-02-22T13:28:29.209Z,9.50
2023-02-22T13:31:18.305Z,9.60
2023-02-22T13:34:06.058Z,9.60
2023-02-22T13:37:06.862Z,9.70
2023-02-22T13:39:57.711Z,9.80
2023-02-22T13:42:55.613Z,9.90
2023-02-22T13:45:56.149Z,9.90
2023-02-22T13:48:51.345Z,10.00
2023-02-22T13:51:43.814Z,10.00
2023-02-22T13:54:20.950Z,10.00
2023-02-22T13:56:52.230Z,9.80
2023-02-22T13:59:27.885Z,9.90
2023-02-22T14:01:56.904Z,10.00
2023-02-22T14:04:46.323Z,10.20
2023-02-22T14:07:57.702Z,10.20
2023-02-22T14:10:48.517Z,10.10
2023-02-22T14:13:19.842Z,10.00
2023-02-22T14:16:20.223Z,10.00
2023-02-22T14:18:50.910Z,9.90
2023-02-22T14:21:21.636Z,9.70
2023-02-22T14:23:51.268Z,9.80
2023-02-22T14:26:25.853Z,9.90
2023-02-22T14:28:59.035Z,10.00
2023-02-22T14:31:36.461Z,10.10
2023-02-22T14:34:11.451Z,10.20
2023-02-22T14:37:01.018Z,10.20
2023-02-22T14:39:34.089Z,10.20
2023-02-22T14:42:07.571Z,10.10
2023-02-22T14:44:42.668Z,10.10
2023-02-22T14:47:18.252Z,10.10
2023-02-22T14:49:50.405Z,10.30
2023-02-22T14:52:24.169Z,10.30
2023-02-22T14:55:07.224Z,10.30
2023-02-22T14:57:44.825Z,10.40
2023-02-22T15:00:23.261Z,10.40
2023-02-22T15:02:57.289Z,10.50
2023-02-22T15:05:30.046Z,10.50
2023-02-22T15:08:00.188Z,10.40
2023-02-22T15:10:31.483Z,10.30
2023-02-22T15:13:11.033Z,10.30
2023-02-22T15:15:47.611Z,10.20
2023-02-22T15:18:24.096Z,10.10
2023-02-22T15:20:56.583Z,10.10
2023-02-22T15:23:33.265Z,10.00
2023-02-22T15:26:03.005Z,10.10
2023-02-22T15:28:32.280Z,10.10
2023-02-22T15:31:28.076Z,10.10
2023-02-22T15:33:56.994Z,10.10
2023-02-22T15:36:31.091Z,10.20
2023-02-22T15:38:59.647Z,10.00
2023-02-22T15:41:31.705Z,10.00
2023-02-22T15:44:07.892Z,10.00
2023-02-22T15:46:43.778Z,10.10
2023-02-22T15:49:24.573Z,10.00
2023-02-22T15:52:09.610Z,10.00
2023-02-22T15:54:44.277Z,10.00
2023-02-22T15:57:16.843Z,10.00
2023-02-22T15:59:50.006Z,10.00
2023-02-22T16:02:32.667Z,10.00
2023-02-22T16:05:05.125Z,10.00
2023-02-22T16:07:34.372Z,10.00
2023-02-22T16:10:09.139Z,10.00
2023-02-22T16:12:38.321Z,9.90
2023-02-22T16:15:17.279Z,9.90
2023-02-22T16:18:01.407Z,9.90
2023-02-22T16:20:35.400Z,10.00
2023-02-22T16:23:24.680Z,10.00
2023-02-22T16:26:21.127Z,10.00
2023-02-22T16:28:51.992Z,9.90
2023-02-22T16:31:25.369Z,9.90
2023-02-22T16:33:55.984Z,9.90
2023-02-22T16:36:37.654Z,9.90
2023-02-22T16:39:07.389Z,9.80
2023-02-22T16:41:35.909Z,9.90
2023-02-22T16:44:08.003Z,9.90
2023-02-22T16:46:37.962Z,9.90
2023-02-22T16:49:08.227Z,9.80
2023-02-22T16:51:42.803Z,9.90
2023-02-22T16:54:14.021Z,9.90
2023-02-22T16:56:42.614Z,9.80
2023-02-22T16:59:14.111Z,9.80
2023-02-22T17:01:43.326Z,9.80
2023-02-22T17:04:16.623Z,9.80
2023-02-22T17:06:45.302Z,9.80
2023-02-22T17:09:13.767Z,9.80
2023-02-22T17:11:42.793Z,9.80
2023-02-22T17:14:14.426Z,9.80
2023-02-22T17:16:42.944Z,9.90
2023-02-22T17:19:16.510Z,9.80
2023-02-22T17:21:44.929Z,9.80
2023-02-22T17:24:14.028Z,9.80
2023-02-22T17:26:42.502Z,9.80
2023-02-22T17:29:10.744Z,9.80
2023-02-22T17:31:39.302Z,9.80
2023-02-22T17:34:08.472Z,9.80
2023-02-22T17:36:38.286Z,9.80
2023-02-22T17:39:10.538Z,9.80
2023-02-22T17:41:40.709Z,9.80
2023-02-22T17:44:09.546Z,9.80
2023-02-22T17:46:40.731Z,9.80
2023-02-22T17:49:09.479Z,9.80
2023-02-22T17:51:41.071Z,9.80
2023-02-22T17:54:10.519Z,9.80
2023-02-22T17:56:38.905Z,9.80
2023-02-22T17:59:09.162Z,9.80
2023-02-22T18:01:37.882Z,9.80
2023-02-22T18:04:06.869Z,9.80
2023-02-22T18:06:35.307Z,9.80
2023-02-22T18:09:10.548Z,9.80
2023-02-22T18:11:40.197Z,9.80
2023-02-22T18:14:10.900Z,9.80
2023-02-22T18:16:40.600Z,9.80
2023-02-22T18:19:09.304Z,9.80
2023-02-22T18:21:38.686Z,9.70
2023-02-22T18:24:08.936Z,9.80
2023-02-22T18:26:39.115Z,9.80
2023-02-22T18:29:07.742Z,9.80
2023-02-22T18:31:36.267Z,9.70
2023-02-22T18:34:04.938Z,9.70
2023-02-22T18:36:33.513Z,9.70
2023-02-22T18:39:04.181Z,9.80
2023-02-22T18:41:33.836Z,9.70
2023-02-22T18:44:03.348Z,9.70
2023-02-22T18:46:31.792Z,9.70
2023-02-22T18:49:00.368Z,9.70
2023-02-22T18:51:29.557Z,9.70
2023-02-22T18:54:00.533Z,9.70
2023-02-22T18:56:30.942Z,9.70
2023-02-22T18:59:01.926Z,9.70
2023-02-22T19:01:31.193Z,9.70
2023-02-22T19:04:01.428Z,9.70
2023-02-22T19:06:29.922Z,9.60
2023-02-22T19:09:01.336Z,9.70
2023-02-22T19:11:29.927Z,9.70
2023-02-22T19:13:59.993Z,9.70
2023-02-22T19:16:28.545Z,9.70
2023-02-22T19:18:58.255Z,9.60
2023-02-22T19:21:27.991Z,9.60
2023-02-22T19:23:56.797Z,9.60
2023-02-22T19:26:26.351Z,9.60
2023-02-22T19:28:56.676Z,9.60
2023-02-22T19:31:31.136Z,9.60
2023-02-22T19:34:02.027Z,9.60
2023-02-22T19:36:30.545Z,9.60
2023-02-22T19:39:01.728Z,9.60
2023-02-22T19:41:30.894Z,9.60
2023-02-22T19:43:59.470Z,9.50
2023-02-22T19:46:29.352Z,9.60
2023-02-22T19:48:58.368Z,9.50
2023-02-22T19:51:29.042Z,9.50
2023-02-22T19:53:59.813Z,9.50
2023-02-22T19:56:28.585Z,9.50
2023-02-22T19:58:58.189Z,9.50
2023-02-22T20:01:32.985Z,9.50
2023-02-22T20:04:03.724Z,9.50
2023-02-22T20:06:35.155Z,9.50
2023-02-22T20:09:04.735Z,9.50
2023-02-22T20:11:33.326Z,9.50
2023-02-22T20:14:02.271Z,9.40
2023-02-22T20:16:32.130Z,9.40
2023-02-22T20:19:00.658Z,9.40
2023-02-22T20:21:31.883Z,9.50
2023-02-22T20:24:00.332Z,9.40
2023-02-22T20:26:30.649Z,9.40
2023-02-22T20:29:04.368Z,9.40
2023-02-22T20:31:34.697Z,9.40
2023-02-22T20:34:06.426Z,9.40
2023-02-22T20:36:36.213Z,9.40
2023-02-22T20:39:07.544Z,9.40
2023-02-22T20:41:37.412Z,9.40
2023-02-22T20:44:07.167Z,9.40
2023-02-22T20:46:37.242Z,9.40
2023-02-22T20:49:08.246Z,9.40
2023-02-22T20:51:37.080Z,9.40
2023-02-22T20:54:06.339Z,9.40
2023-02-22T20:56:34.844Z,9.30
2023-02-22T20:59:04.588Z,9.40
2023-02-22T21:01:33.534Z,9.30
2023-02-22T21:04:04.272Z,9.30
2023-02-22T21:06:35.369Z,9.30
2023-02-22T21:09:07.320Z,9.30
2023-02-22T21:11:36.262Z,9.30
2023-02-22T21:14:04.855Z,9.30
2023-02-22T21:16:35.592Z,9.30
2023-02-22T21:19:07.258Z,9.30
2023-02-22T21:21:36.886Z,9.30
2023-02-22T21:24:05.524Z,9.30
2023-02-22T21:26:35.589Z,9.30
2023-02-22T21:29:05.840Z,9.30
2023-02-22T21:31:34.900Z,9.30
2023-02-22T21:34:05.607Z,9.30
2023-02-22T21:36:34.224Z,9.20
2023-02-22T21:39:08.450Z,9.30
2023-02-22T21:41:39.175Z,9.30
2023-02-22T21:44:09.060Z,9.30
2023-02-22T21:46:37.631Z,9.20
2023-02-22T21:49:07.468Z,9.20
2023-02-22T21:51:37.782Z,9.20
2023-02-22T21:54:07.775Z,9.20
2023-02-22T21:56:38.154Z,9.20
2023-02-22T21:59:11.600Z,9.20
2023-02-22T22:01:46.792Z,9.30
2023-02-22T22:04:19.298Z,9.30
2023-02-22T22:06:48.814Z,9.20
2023-02-22T22:09:20.375Z,9.20
2023-02-22T22:11:49.859Z,9.20
2023-02-22T22:14:19.080Z,9.20
2023-02-22T22:16:48.267Z,9.20
2023-02-22T22:19:18.245Z,9.20
2023-02-22T22:21:48.878Z,9.20
2023-02-22T22:24:20.516Z,9.20
2023-02-22T22:26:51.179Z,9.20
2023-02-22T22:29:20.383Z,9.20
2023-02-22T22:31:48.840Z,9.20
2023-02-22T22:34:19.527Z,9.20
2023-02-22T22:36:48.011Z,9.10
2023-02-22T22:39:16.399Z,9.10
2023-02-22T22:41:45.446Z,9.10
2023-02-22T22:44:16.184Z,9.10
2023-02-22T22:46:49.144Z,9.10
2023-02-22T22:49:20.646Z,9.10
2023-02-22T22:51:49.131Z,9.20
2023-02-22T22:54:18.365Z,9.20
2023-02-22T22:56:46.942Z,9.20
2023-02-22T22:59:15.512Z,9.20
2023-02-22T23:01:45.588Z,9.20
2023-02-22T23:04:16.900Z,9.20
2023-02-22T23:06:49.887Z,9.20
2023-02-22T23:09:21.744Z,9.20
2023-02-22T23:11:53.429Z,9.20
2023-02-22T23:14:24.282Z,9.20
2023-02-22T23:16:53.850Z,9.20
2023-02-22T23:19:22.874Z,9.20
2023-02-22T23:21:53.035Z,9.20
2023-02-22T23:24:21.637Z,9.10
2023-02-22T23:26:50.345Z,9.20
2023-02-22T23:29:19.583Z,9.20
2023-02-22T23:31:49.006Z,9.20
2023-02-22T23:34:18.381Z,9.20
2023-02-22T23:36:47.711Z,9.20
2023-02-22T23:39:20.599Z,9.20
2023-02-22T23:41:51.606Z,9.30
2023-02-22T23:44:21.634Z,9.20
2023-02-22T23:46:55.280Z,9.20
2023-02-22T23:49:26.375Z,9.20
2023-02-22T23:51:54.976Z,9.20
2023-02-22T23:54:25.361Z,9.30
2023-02-22T23:56:57.291Z,9.20
2023-02-22T23:59:27.042Z,9.20
